Time;durP1;ratioP1;P1;durP2;ratioP2;P2;SDS_P1;SDS_P2;PMS_P1;PMS_P2;Temp;Humidity;BMP_temperature;BMP_pressure;BME280_temperature;BME280_humidity;BME280_pressure;Samples;Min_cycle;Max_cycle;Signal;HPM_P1;HPM_P2
2022/01/03 00:00:25;;;;;;;1.55;1.45;;;-1.80;99.90;;;;;;4935078;29;20036;-71
2022/01/03 00:02:53;;;;;;;2.08;1.67;;;-1.80;99.90;;;;;;4934868;29;20042;-72
2022/01/03 00:05:19;;;;;;;2.47;1.60;;;-1.80;99.90;;;;;;4935301;29;20404;-72
2022/01/03 00:07:46;;;;;;;1.30;1.20;;;-1.80;99.90;;;;;;4935268;29;20035;-71
2022/01/03 00:10:15;;;;;;;2.75;1.63;;;-1.80;99.90;;;;;;4935180;29;20032;-72
2022/01/03 00:12:42;;;;;;;2.13;1.55;;;-1.80;99.90;;;;;;4935192;29;20032;-72
2022/01/03 00:15:10;;;;;;;2.15;1.52;;;-1.80;99.90;;;;;;4934916;29;20383;-72
2022/01/03 00:17:36;;;;;;;2.38;1.52;;;-1.80;99.90;;;;;;4934922;29;20059;-71
2022/01/03 00:20:04;;;;;;;5.25;1.70;;;-1.80;99.90;;;;;;4934747;29;20024;-72
2022/01/03 00:22:37;;;;;;;2.17;1.55;;;-1.80;99.90;;;;;;4935146;29;20428;-72
2022/01/03 00:25:08;;;;;;;2.38;1.40;;;-1.70;99.90;;;;;;4935049;29;20028;-72
2022/01/03 00:27:58;;;;;;;1.88;1.77;;;-1.70;99.90;;;;;;4934843;29;20063;-72
2022/01/03 00:30:24;;;;;;;1.50;1.40;;;-1.70;99.90;;;;;;4934945;29;20055;-72
2022/01/03 00:32:51;;;;;;;3.20;1.52;;;-1.70;99.90;;;;;;4934931;29;20036;-72
2022/01/03 00:35:21;;;;;;;4.38;1.60;;;-1.70;99.90;;;;;;4934780;29;20059;-72
2022/01/03 00:37:48;;;;;;;2.10;1.33;;;-1.70;99.90;;;;;;4934524;29;20054;-72
2022/01/03 00:40:15;;;;;;;3.15;1.77;;;-1.70;99.90;;;;;;4934804;29;20075;-72
2022/01/03 00:42:41;;;;;;;3.30;1.35;;;-1.60;99.90;;;;;;4934714;29;20071;-72
2022/01/03 00:45:07;;;;;;;2.05;1.90;;;-1.60;99.90;;;;;;4933236;29;20056;-72
2022/01/03 00:47:34;;;;;;;3.50;1.50;;;-1.70;99.90;;;;;;4934906;29;20062;-73
2022/01/03 00:50:10;;;;;;;2.65;1.50;;;-1.70;99.90;;;;;;4934569;29;20063;-73
2022/01/03 00:52:36;;;;;;;1.58;1.48;;;-1.70;99.90;;;;;;4934657;29;20042;-73
2022/01/03 00:55:04;;;;;;;1.60;1.50;;;-1.70;99.90;;;;;;4934537;29;20028;-75
2022/01/03 00:57:52;;;;;;;2.90;1.50;;;-1.70;99.90;;;;;;4934559;29;20063;-74
2022/01/03 01:00:18;;;;;;;3.33;2.03;;;-1.60;99.90;;;;;;4935981;29;20074;-75
2022/01/03 01:03:10;;;;;;;4.47;1.60;;;-1.70;99.90;;;;;;4938315;29;20023;-74
2022/01/03 01:05:39;;;;;;;3.83;1.85;;;-1.70;99.90;;;;;;4938498;29;20027;-74
2022/01/03 01:08:06;;;;;;;3.30;1.90;;;-1.60;99.90;;;;;;4938087;29;20051;-75
2022/01/03 01:10:34;;;;;;;3.05;1.80;;;-1.70;99.90;;;;;;4938274;29;20507;-75
2022/01/03 01:13:04;;;;;;;3.05;1.85;;;-1.60;99.90;;;;;;4937161;29;20071;-75
2022/01/03 01:15:30;;;;;;;4.07;1.98;;;-1.60;99.90;;;;;;4938224;29;20063;-75
2022/01/03 01:17:57;;;;;;;2.42;1.63;;;-1.60;99.90;;;;;;4937907;29;20054;-75
2022/01/03 01:20:24;;;;;;;2.30;1.60;;;-1.70;99.90;;;;;;4938046;29;20060;-75
2022/01/03 01:22:50;;;;;;;2.95;1.73;;;-1.70;99.90;;;;;;4937956;29;20377;-76
2022/01/03 01:27:49;;;;;;;1.55;1.45;;;-1.70;99.90;;;;;;4937819;29;20619;-73
2022/01/03 01:30:20;;;;;;;2.20;1.70;;;-1.70;99.90;;;;;;4937975;29;20039;-73
2022/01/03 01:32:52;;;;;;;4.32;1.77;;;-1.70;99.90;;;;;;4937660;29;20114;-73
2022/01/03 01:35:19;;;;;;;3.65;1.65;;;-1.70;99.90;;;;;;4937522;29;20079;-73
2022/01/03 01:37:48;;;;;;;2.17;1.42;;;-1.70;99.90;;;;;;4937315;29;20464;-73
2022/01/03 01:40:14;;;;;;;2.55;2.03;;;-1.80;99.90;;;;;;4937372;29;20115;-71
2022/01/03 01:42:46;;;;;;;2.78;2.03;;;-1.80;99.90;;;;;;4937558;29;20114;-72
2022/01/03 01:45:19;;;;;;;2.70;1.90;;;-1.80;99.90;;;;;;4937389;29;20483;-72
2022/01/03 01:47:48;;;;;;;2.92;1.90;;;-1.80;99.90;;;;;;4937525;29;20024;-72
2022/01/03 01:50:13;;;;;;;2.40;1.55;;;-1.80;99.90;;;;;;4937273;29;20028;-72
2022/01/03 01:52:45;;;;;;;2.50;1.83;;;-1.80;99.90;;;;;;4937316;29;20031;-73
2022/01/03 01:55:14;;;;;;;2.00;1.50;;;-1.90;99.90;;;;;;4937458;29;20030;-72
2022/01/03 01:58:05;;;;;;;2.30;1.52;;;-1.80;99.90;;;;;;4937248;29;20119;-72
2022/01/03 02:00:33;;;;;;;1.95;1.60;;;-1.90;99.90;;;;;;4937513;29;20035;-72
2022/01/03 02:03:26;;;;;;;2.42;1.63;;;-1.90;99.90;;;;;;4935862;29;20705;-72
2022/01/03 02:06:36;;;;;;;1.67;1.58;;;-1.90;99.90;;;;;;4950728;29;20083;-72
2022/01/03 02:09:04;;;;;;;2.15;1.70;;;-1.90;99.90;;;;;;4915707;29;20036;-76
2022/01/03 02:11:46;;;;;;;3.35;1.92;;;-2.00;99.90;;;;;;4914443;29;20071;-76
2022/01/03 02:14:13;;;;;;;3.75;2.05;;;-1.90;99.90;;;;;;4929098;29;20094;-76
2022/01/03 02:16:39;;;;;;;4.18;2.10;;;-1.90;99.90;;;;;;4936897;29;20137;-77
2022/01/03 02:19:05;;;;;;;2.55;1.80;;;-2.00;99.90;;;;;;4937056;29;20049;-76
2022/01/03 02:21:31;;;;;;;3.97;1.98;;;-2.00;99.90;;;;;;4951358;29;20070;-76
2022/01/03 02:55:46;;;;;;;3.05;1.95;;;-2.00;99.90;;;;;;4935597;29;20487;-73
2022/01/03 02:58:11;;;;;;;3.05;2.00;;;-2.00;99.90;;;;;;4936154;29;20108;-74
2022/01/03 03:00:45;;;;;;;2.53;1.88;;;-2.00;99.90;;;;;;4936173;29;20531;-74
2022/01/03 03:03:15;;;;;;;3.75;1.70;;;-1.90;99.90;;;;;;4936086;29;20030;-74
2022/01/03 03:39:20;;;;;;;1.58;1.48;;;-1.80;99.90;;;;;;4963849;23;20064;-73
2022/01/03 03:41:46;;;;;;;3.75;1.77;;;-1.80;99.90;;;;;;4935582;29;20047;-73
2022/01/03 03:44:11;;;;;;;2.30;2.08;;;-1.80;99.90;;;;;;4935174;29;20532;-73
2022/01/03 03:46:37;;;;;;;3.17;1.85;;;-1.80;99.90;;;;;;4934041;29;20024;-73
2022/01/03 03:49:03;;;;;;;2.42;2.10;;;-1.80;99.90;;;;;;4935556;29;20024;-73
2022/01/03 03:51:29;;;;;;;6.63;2.10;;;-1.80;99.90;;;;;;4935235;29;20028;-73
2022/01/03 03:53:55;;;;;;;3.53;1.83;;;-1.80;99.90;;;;;;4934148;29;20027;-71
2022/01/03 03:56:21;;;;;;;4.07;1.83;;;-1.80;99.90;;;;;;4935170;29;20031;-71
2022/01/03 03:58:47;;;;;;;3.83;2.08;;;-1.70;99.90;;;;;;4935066;29;20024;-71
2022/01/03 04:01:13;;;;;;;3.08;2.17;;;-1.70;99.90;;;;;;4935179;29;20483;-72
2022/01/03 04:03:39;;;;;;;3.53;1.70;;;-1.70;99.90;;;;;;4935156;29;20039;-72
2022/01/03 04:06:04;;;;;;;1.88;1.60;;;-1.60;99.90;;;;;;4935183;29;20027;-72
2022/01/03 04:08:30;;;;;;;2.63;1.77;;;-1.60;99.90;;;;;;4934920;29;20119;-73
2022/01/03 04:10:56;;;;;;;3.45;1.58;;;-1.70;99.90;;;;;;4934952;29;20047;-71
2022/01/03 04:13:21;;;;;;;4.95;1.70;;;-1.70;99.90;;;;;;4935303;29;20046;-71
2022/01/03 04:15:47;;;;;;;1.40;1.30;;;-1.70;99.90;;;;;;4934910;29;20051;-71
2022/01/03 04:18:13;;;;;;;3.85;2.03;;;-1.80;99.90;;;;;;4935258;29;20023;-71
2022/01/03 04:20:38;;;;;;;2.42;1.90;;;-1.80;99.90;;;;;;4934860;29;20110;-71
2022/01/03 04:23:04;;;;;;;2.67;2.08;;;-1.80;99.90;;;;;;4934885;29;20099;-72
2022/01/03 04:25:29;;;;;;;3.67;1.77;;;-1.70;99.90;;;;;;4935152;29;20103;-71
2022/01/03 04:27:55;;;;;;;4.75;1.70;;;-1.70;99.90;;;;;;4934904;29;20540;-72
2022/01/03 04:30:21;;;;;;;3.03;2.03;;;-1.80;99.90;;;;;;4934846;29;20094;-71
2022/01/03 04:32:47;;;;;;;5.82;1.92;;;-1.80;99.90;;;;;;4934691;29;20053;-72
2022/01/03 04:35:13;;;;;;;3.08;2.10;;;-1.80;99.90;;;;;;4936500;29;20027;-72
2022/01/03 04:37:39;;;;;;;3.67;2.25;;;-1.70;99.90;;;;;;4938484;29;20047;-72
2022/01/03 04:40:05;;;;;;;2.83;2.20;;;-1.70;99.90;;;;;;4938815;29;20024;-72
2022/01/03 04:42:31;;;;;;;2.72;2.05;;;-1.70;99.90;;;;;;4938781;29;20368;-72
2022/01/03 04:44:57;;;;;;;4.13;2.47;;;-1.70;99.90;;;;;;4938367;29;20038;-72
2022/01/03 04:47:23;;;;;;;4.25;2.47;;;-1.70;99.90;;;;;;4938473;29;20070;-72
2022/01/03 04:49:48;;;;;;;4.25;2.30;;;-1.70;99.90;;;;;;4938362;29;20031;-72
2022/01/03 04:52:14;;;;;;;4.90;2.08;;;-1.70;99.90;;;;;;4938468;29;20126;-72
2022/01/03 04:54:40;;;;;;;3.13;2.25;;;-1.80;99.90;;;;;;4938542;29;20032;-72
2022/01/03 04:57:06;;;;;;;3.83;2.10;;;-1.80;99.90;;;;;;4938379;29;20083;-71
2022/01/03 04:59:31;;;;;;;3.83;1.85;;;-1.80;99.90;;;;;;4938256;29;20040;-72
2022/01/03 05:01:57;;;;;;;3.17;1.95;;;-1.80;99.90;;;;;;4938375;29;20158;-72
2022/01/03 05:04:23;;;;;;;4.63;2.75;;;-1.80;99.90;;;;;;4938195;29;20490;-71
2022/01/03 05:06:48;;;;;;;3.47;2.00;;;-1.90;99.90;;;;;;4937960;29;20098;-71
2022/01/03 05:09:14;;;;;;;3.63;2.15;;;-1.80;99.90;;;;;;4937999;29;20023;-71
2022/01/03 05:11:40;;;;;;;2.97;2.40;;;-1.80;99.90;;;;;;4938107;29;20067;-72
2022/01/03 05:14:05;;;;;;;2.22;1.92;;;-1.80;99.90;;;;;;4937872;29;20383;-71
2022/01/03 05:16:31;;;;;;;3.47;2.30;;;-1.90;99.90;;;;;;4937823;29;20040;-71
2022/01/03 05:18:57;;;;;;;5.07;2.40;;;-1.90;99.90;;;;;;4937693;29;20052;-72
2022/01/03 05:21:24;;;;;;;2.33;2.10;;;-1.90;99.90;;;;;;4938065;29;20082;-73
2022/01/03 05:23:50;;;;;;;3.95;2.60;;;-1.90;99.90;;;;;;4937800;29;20054;-73
2022/01/03 05:26:16;;;;;;;3.38;2.30;;;-1.90;99.90;;;;;;4937809;29;20491;-72
2022/01/03 05:28:42;;;;;;;6.05;2.30;;;-1.90;99.90;;;;;;4937461;29;20498;-72
2022/01/03 05:31:09;;;;;;;3.42;2.13;;;-1.80;99.90;;;;;;4937982;29;20032;-72
2022/01/03 05:33:34;;;;;;;9.25;4.30;;;-1.90;99.90;;;;;;4937682;29;20032;-69
2022/01/03 05:36:00;;;;;;;4.35;2.75;;;-1.90;99.90;;;;;;4937812;29;20398;-73
2022/01/03 05:38:26;;;;;;;5.85;2.83;;;-1.90;99.90;;;;;;4937335;29;20063;-72
2022/01/03 05:40:51;;;;;;;5.43;2.35;;;-1.90;99.90;;;;;;4937332;29;20514;-71
2022/01/03 05:43:17;;;;;;;3.45;2.40;;;-1.70;99.90;;;;;;4937841;29;20028;-77
2022/01/03 05:45:43;;;;;;;4.50;2.90;;;-1.70;99.90;;;;;;4937090;29;20035;-73
2022/01/03 05:48:08;;;;;;;6.43;2.65;;;-1.40;99.90;;;;;;4936892;29;20031;-77
2022/01/03 05:50:34;;;;;;;4.60;2.38;;;-1.40;99.90;;;;;;4937183;29;20024;-75
2022/01/03 05:53:00;;;;;;;2.75;2.03;;;-1.50;99.90;;;;;;4936840;29;20046;-73
2022/01/03 05:55:26;;;;;;;3.50;2.50;;;-1.60;99.90;;;;;;4937162;29;20028;-73
2022/01/03 05:57:52;;;;;;;4.20;2.72;;;-1.70;99.90;;;;;;4936716;29;20469;-75
2022/01/03 06:00:20;;;;;;;4.75;2.67;;;-1.70;99.90;;;;;;4936943;29;20024;-72
2022/01/03 06:02:45;;;;;;;5.53;2.60;;;-1.70;99.90;;;;;;4937062;29;20031;-72
2022/01/03 06:08:06;;;;;;;3.92;2.70;;;-1.70;99.90;;;;;;4919523;29;20080;-74
2022/01/03 06:10:32;;;;;;;3.92;2.50;;;-1.80;99.90;;;;;;4936574;29;20099;-75
2022/01/03 06:12:57;;;;;;;4.05;2.72;;;-1.80;99.90;;;;;;4936768;29;20118;-74
2022/01/03 06:15:25;;;;;;;6.57;2.58;;;-1.80;99.90;;;;;;4936886;29;20480;-74
2022/01/03 06:17:51;;;;;;;4.80;3.00;;;-1.80;99.90;;;;;;4936659;29;20395;-75
2022/01/03 06:20:17;;;;;;;6.10;2.72;;;-1.80;99.90;;;;;;4936706;29;20052;-74
2022/01/03 06:22:44;;;;;;;9.00;2.88;;;-1.80;99.90;;;;;;4936564;29;20028;-77
2022/01/03 06:25:11;;;;;;;6.10;3.38;;;-1.80;99.90;;;;;;4936768;29;20034;-74
2022/01/03 06:27:38;;;;;;;4.82;2.88;;;-1.80;99.90;;;;;;4936882;29;20070;-75
2022/01/03 06:30:05;;;;;;;4.88;2.58;;;-1.70;99.90;;;;;;4936549;29;20395;-75
2022/01/03 06:32:31;;;;;;;6.28;3.08;;;-1.60;99.90;;;;;;4936726;29;20024;-75
2022/01/03 06:34:57;;;;;;;6.05;2.92;;;-1.60;99.90;;;;;;4936395;29;20023;-75
2022/01/03 06:37:22;;;;;;;29.23;3.78;;;-1.60;99.90;;;;;;4936494;29;20063;-75
2022/01/03 06:39:48;;;;;;;5.07;2.60;;;-1.70;99.90;;;;;;4936409;29;20476;-75
2022/01/03 06:42:14;;;;;;;6.47;3.38;;;-1.70;99.90;;;;;;4936341;29;20110;-75
2022/01/03 06:44:40;;;;;;;5.25;2.78;;;-1.70;99.90;;;;;;4936371;29;20034;-72
2022/01/03 06:47:05;;;;;;;4.88;2.80;;;-1.70;99.90;;;;;;4936558;29;20035;-72
2022/01/03 06:49:31;;;;;;;6.40;3.10;;;-1.70;99.90;;;;;;4936346;29;20387;-72
2022/01/03 06:51:57;;;;;;;7.18;3.17;;;-1.60;99.90;;;;;;4936495;29;20063;-72
2022/01/03 06:54:22;;;;;;;8.52;3.40;;;-1.60;99.90;;;;;;4936223;29;20387;-71
2022/01/03 06:56:48;;;;;;;5.82;2.88;;;-1.60;99.90;;;;;;4935950;29;20436;-71
2022/01/03 06:59:14;;;;;;;3.67;2.97;;;-1.60;99.90;;;;;;4935848;29;20043;-71
2022/01/03 07:01:39;;;;;;;4.90;2.97;;;-1.50;99.90;;;;;;4936353;29;20039;-71
2022/01/03 07:04:05;;;;;;;4.68;2.70;;;-1.50;99.90;;;;;;4936256;29;20519;-72
2022/01/03 07:06:32;;;;;;;6.53;3.50;;;-1.50;99.90;;;;;;4936138;29;20103;-71
2022/01/03 07:08:58;;;;;;;6.38;3.22;;;0.20;99.90;;;;;;4935562;29;20023;-78
2022/01/03 07:11:23;;;;;;;10.25;3.50;;;0.50;99.90;;;;;;4935940;29;20038;-77
2022/01/03 07:13:53;;;;;;;6.40;2.67;;;0.20;99.90;;;;;;4935766;29;20027;-74
2022/01/03 07:19:06;;;;;;;3.22;2.25;;;-0.40;99.90;;;;;;4935885;29;20083;-74
2022/01/03 07:21:34;;;;;;;4.70;2.75;;;-0.60;99.90;;;;;;4935922;29;20035;-73
2022/01/03 07:24:00;;;;;;;6.93;2.90;;;-0.80;99.90;;;;;;4935612;29;20032;-72
2022/01/03 07:26:27;;;;;;;6.88;2.90;;;-0.30;99.90;;;;;;4936043;29;20031;-77
2022/01/03 07:28:54;;;;;;;4.88;2.53;;;-0.40;99.90;;;;;;4934373;29;20506;-78
2022/01/03 07:31:20;;;;;;;4.20;2.55;;;-0.70;99.90;;;;;;4935979;29;20039;-71
2022/01/03 07:33:46;;;;;;;5.15;2.47;;;-0.90;99.90;;;;;;4935397;29;20034;-81
2022/01/03 07:36:12;;;;;;;4.57;2.60;;;-1.10;99.90;;;;;;4935800;29;20403;-78
2022/01/03 07:38:38;;;;;;;7.75;2.63;;;-1.20;99.90;;;;;;4935199;29;20047;-76
2022/01/03 07:41:04;;;;;;;3.47;2.50;;;-1.20;99.90;;;;;;4935481;29;20032;-75
2022/01/03 07:43:31;;;;;;;5.20;2.65;;;-1.30;99.90;;;;;;4935397;29;20126;-78
2022/01/03 07:45:57;;;;;;;5.85;2.35;;;-1.10;99.90;;;;;;4935479;29;20038;-77
2022/01/03 07:48:23;;;;;;;4.47;2.67;;;-1.00;99.90;;;;;;4934014;29;20023;-77
2022/01/03 07:50:49;;;;;;;7.07;3.00;;;-1.00;99.90;;;;;;4929529;29;20043;-73
2022/01/03 07:53:15;;;;;;;5.70;2.75;;;-0.70;99.90;;;;;;4926443;29;20020;-75
2022/01/03 07:55:40;;;;;;;3.85;2.53;;;-0.80;99.90;;;;;;4916266;29;20036;-75
2022/01/03 07:58:06;;;;;;;4.55;2.78;;;-1.00;99.90;;;;;;4932680;29;20474;-71
2022/01/03 08:00:32;;;;;;;4.72;2.53;;;-1.10;99.90;;;;;;4915626;29;20028;-71
2022/01/03 08:02:58;;;;;;;5.05;3.20;;;-1.10;99.90;;;;;;4925534;29;20036;-69
2022/01/03 08:05:23;;;;;;;5.47;3.22;;;-1.10;99.90;;;;;;4933838;29;20032;-69
2022/01/03 08:07:49;;;;;;;10.73;4.88;;;-1.20;99.90;;;;;;4934233;29;20059;-69
2022/01/03 08:10:15;;;;;;;4.55;3.00;;;-1.20;99.90;;;;;;4934250;29;20028;-69
2022/01/03 08:12:42;;;;;;;5.60;3.10;;;-1.20;99.90;;;;;;4934355;29;20023;-69
2022/01/03 08:15:08;;;;;;;5.45;3.15;;;-1.20;99.90;;;;;;4933941;29;20059;-69
2022/01/03 08:17:34;;;;;;;5.05;2.95;;;-1.30;99.90;;;;;;4933839;29;20471;-69
2022/01/03 08:20:01;;;;;;;5.90;3.28;;;-1.30;99.90;;;;;;4933791;29;20043;-69
2022/01/03 08:22:27;;;;;;;3.30;2.90;;;-1.30;99.90;;;;;;4934706;29;20046;-69
2022/01/03 08:24:52;;;;;;;5.60;3.70;;;-1.30;99.90;;;;;;4934509;29;20028;-69
2022/01/03 08:27:18;;;;;;;6.15;2.97;;;-1.40;99.90;;;;;;4934669;29;20391;-69
2022/01/03 08:29:44;;;;;;;3.97;2.85;;;-1.40;99.90;;;;;;4934362;29;20115;-69
2022/01/03 08:32:10;;;;;;;3.65;2.63;;;-1.40;99.90;;;;;;4934214;29;20095;-71
2022/01/03 08:34:36;;;;;;;5.25;3.03;;;-1.40;99.90;;;;;;4935186;29;20034;-71
2022/01/03 08:37:02;;;;;;;4.43;2.58;;;-1.40;99.90;;;;;;4934887;29;20024;-72
2022/01/03 08:39:28;;;;;;;5.00;2.90;;;-1.40;99.90;;;;;;4934333;29;20083;-69
2022/01/03 08:41:54;;;;;;;5.78;2.97;;;-1.40;99.90;;;;;;4934288;29;20047;-70
2022/01/03 08:44:20;;;;;;;6.57;2.55;;;-1.10;99.90;;;;;;4933790;29;20031;-72
2022/01/03 08:46:51;;;;;;;4.25;2.10;;;0.40;99.90;;;;;;4934744;29;20032;-70
2022/01/03 08:49:17;;;;;;;2.92;2.13;;;1.50;99.90;;;;;;4934553;29;20028;-71
2022/01/03 08:51:43;;;;;;;7.00;3.10;;;1.80;99.90;;;;;;4934306;29;20179;-70
2022/01/03 08:54:10;;;;;;;4.35;2.55;;;3.00;99.90;;;;;;4934508;29;20110;-70
2022/01/03 08:56:38;;;;;;;3.97;2.30;;;2.40;99.90;;;;;;4934430;29;20051;-70
2022/01/03 08:59:03;;;;;;;4.78;2.50;;;1.60;99.90;;;;;;4934372;29;20801;-70
2022/01/03 09:01:29;;;;;;;6.50;3.08;;;1.00;99.90;;;;;;4934420;29;20032;-70
2022/01/03 09:03:55;;;;;;;6.45;3.17;;;0.60;99.90;;;;;;4934312;29;20118;-70
2022/01/03 09:06:21;;;;;;;6.07;3.40;;;0.30;99.90;;;;;;4934556;29;20030;-70
2022/01/03 09:08:48;;;;;;;4.97;3.00;;;0.20;99.90;;;;;;4934683;29;20027;-70
2022/01/03 09:11:14;;;;;;;3.83;2.60;;;0.00;99.90;;;;;;4934492;29;20428;-70
2022/01/03 09:13:40;;;;;;;4.60;2.63;;;-0.10;99.90;;;;;;4934486;29;20055;-69
2022/01/03 09:16:07;;;;;;;3.83;2.50;;;-0.30;99.90;;;;;;4934106;29;20380;-70
2022/01/03 09:18:37;;;;;;;5.75;3.05;;;-0.50;99.90;;;;;;4934605;29;20035;-69
2022/01/03 09:21:03;;;;;;;6.78;3.35;;;-0.70;99.90;;;;;;4935208;29;20035;-69
2022/01/03 09:23:33;;;;;;;5.68;3.30;;;-0.80;99.90;;;;;;4937871;29;20075;-69
2022/01/03 09:28:49;;;;;;;6.82;2.92;;;-0.90;99.90;;;;;;4937848;29;20443;-69
2022/01/03 09:31:15;;;;;;;4.70;3.13;;;-0.90;99.90;;;;;;4937586;29;20028;-69
2022/01/03 09:33:41;;;;;;;4.05;2.83;;;-0.90;99.90;;;;;;4937681;29;20024;-69
2022/01/03 09:36:07;;;;;;;4.88;3.10;;;-1.00;99.90;;;;;;4937810;29;20034;-69
2022/01/03 09:38:34;;;;;;;6.90;3.42;;;-1.00;99.90;;;;;;4937526;29;20094;-69
2022/01/03 09:41:02;;;;;;;5.40;3.55;;;-1.10;99.90;;;;;;4937328;29;20039;-69
2022/01/03 09:43:54;;;;;;;9.07;3.38;;;-1.20;99.90;;;;;;4937828;29;20028;-69
2022/01/03 09:46:24;;;;;;;6.20;3.90;;;-1.20;99.90;;;;;;4931982;29;20086;-70
2022/01/03 09:48:52;;;;;;;4.82;3.42;;;-1.20;99.90;;;;;;4937866;29;20039;-69
2022/01/03 09:51:30;;;;;;;6.93;3.65;;;-1.30;99.90;;;;;;4937784;29;20051;-69
2022/01/03 09:54:12;;;;;;;6.35;3.72;;;-1.20;99.90;;;;;;4937556;29;20106;-70
2022/01/03 09:56:39;;;;;;;11.73;4.28;;;-1.20;99.90;;;;;;4937512;29;20028;-69
2022/01/03 09:59:06;;;;;;;7.25;4.53;;;-1.20;99.90;;;;;;4937538;29;20035;-70
2022/01/03 10:01:33;;;;;;;10.55;4.53;;;-1.20;99.90;;;;;;4937204;29;20376;-69
2022/01/03 10:04:00;;;;;;;8.07;3.60;;;-1.20;99.90;;;;;;4937242;29;20389;-69
2022/01/03 10:06:26;;;;;;;7.55;3.70;;;-1.20;99.90;;;;;;4937151;29;20054;-69
2022/01/03 10:08:53;;;;;;;7.18;3.95;;;-1.20;99.90;;;;;;4937410;29;20086;-69
2022/01/03 10:11:20;;;;;;;9.07;4.05;;;-1.20;99.90;;;;;;4935727;29;20511;-69
2022/01/03 10:13:46;;;;;;;3.30;2.10;;;-1.20;99.90;;;;;;4936935;29;20023;-70
2022/01/03 10:16:12;;;;;;;6.63;3.40;;;-0.20;99.90;;;;;;4936972;29;20119;-70
2022/01/03 10:18:38;;;;;;;2.97;2.67;;;1.10;99.90;;;;;;4936851;29;20038;-69
2022/01/03 10:21:06;;;;;;;6.47;3.10;;;0.90;99.90;;;;;;4936727;29;20039;-70
2022/01/03 10:23:32;;;;;;;2.85;1.92;;;0.50;99.90;;;;;;4936736;29;20057;-69
2022/01/03 10:26:19;;;;;;;6.28;2.80;;;2.80;99.90;;;;;;4936779;29;20111;-68
2022/01/03 10:28:44;;;;;;;2.65;2.15;;;3.30;99.90;;;;;;4936623;29;20027;-68
2022/01/03 10:31:18;;;;;;;3.05;2.35;;;2.50;99.90;;;;;;4936467;29;20032;-68
2022/01/03 10:33:45;;;;;;;5.60;2.70;;;1.80;99.90;;;;;;4935575;29;20024;-68
2022/01/03 10:36:32;;;;;;;5.88;2.50;;;1.20;99.90;;;;;;4936321;29;20027;-69
2022/01/03 10:39:10;;;;;;;3.63;2.45;;;1.10;99.90;;;;;;4906425;28;1279436;-68
2022/01/03 10:41:35;;;;;;;4.03;2.25;;;1.10;99.90;;;;;;4924604;29;20044;-68
2022/01/03 10:44:01;;;;;;;3.90;2.17;;;1.50;99.90;;;;;;4926858;29;20019;-68
2022/01/03 10:46:33;;;;;;;6.18;2.50;;;1.30;99.90;;;;;;4936004;29;20471;-68
2022/01/03 10:49:15;;;;;;;4.15;2.72;;;0.90;99.90;;;;;;4936668;29;20027;-69
2022/01/03 10:51:41;;;;;;;4.47;3.05;;;0.60;99.90;;;;;;4936009;29;20028;-68
2022/01/03 10:54:19;;;;;;;4.57;2.63;;;0.20;99.90;;;;;;4935602;29;20031;-69
2022/01/03 10:56:48;;;;;;;5.55;2.80;;;0.00;99.90;;;;;;4935658;29;20472;-68
2022/01/03 10:59:18;;;;;;;5.85;2.67;;;-0.30;99.90;;;;;;4931596;29;20027;-69
2022/01/03 11:01:48;;;;;;;5.90;2.58;;;-0.50;99.90;;;;;;4934791;29;20542;-68
2022/01/03 11:04:53;;;;;;;;;;;-0.60;99.90;;;;;;4936261;29;20034;-67
2022/01/03 11:13:15;;;;;;;4.32;2.53;;;-0.90;99.90;;;;;;4936098;29;20035;-67
2022/01/03 11:15:59;;;;;;;3.50;2.20;;;-1.00;99.90;;;;;;4935494;29;20028;-67
2022/01/03 11:18:31;;;;;;;7.40;2.85;;;-1.00;99.90;;;;;;4934753;29;20024;-68
2022/01/03 11:21:30;;;;;;;5.43;2.90;;;-1.10;99.90;;;;;;4935702;29;20047;-69
2022/01/03 11:24:12;;;;;;;3.47;2.45;;;-1.20;99.90;;;;;;4914262;29;20044;-69
2022/01/03 11:26:43;;;;;;;45.47;4.43;;;-1.30;99.90;;;;;;4935721;29;20027;-71
2022/01/03 11:29:12;;;;;;;8.63;3.40;;;-1.20;99.90;;;;;;4935630;29;20032;-69
2022/01/03 11:31:39;;;;;;;5.45;2.95;;;-1.10;99.90;;;;;;4935641;29;20024;-68
2022/01/03 11:34:09;;;;;;;7.43;3.10;;;-1.10;99.90;;;;;;4935416;29;20027;-68
2022/01/03 11:36:37;;;;;;;4.70;2.97;;;-1.00;99.90;;;;;;4935471;29;20027;-68
2022/01/03 11:39:07;;;;;;;5.13;2.58;;;-1.00;99.90;;;;;;4935309;29;20495;-69
2022/01/03 11:41:33;;;;;;;;;;;-0.90;99.90;;;;;;4935922;29;20085;-68
2022/01/03 11:44:01;;;;;;;6.75;3.08;;;-1.00;99.90;;;;;;4934923;29;20342;-68
2022/01/03 11:46:28;;;;;;;7.55;3.13;;;-1.00;99.90;;;;;;4934988;29;20024;-69
2022/01/03 11:48:54;;;;;;;7.00;2.85;;;-1.10;99.90;;;;;;4935541;29;20043;-69
2022/01/03 11:51:22;;;;;;;4.32;2.90;;;-1.10;99.90;;;;;;4935322;29;20027;-68
2022/01/03 11:53:49;;;;;;;6.30;2.85;;;-1.10;99.90;;;;;;4935175;29;20038;-69
2022/01/03 11:56:20;;;;;;;5.05;2.97;;;-1.10;99.90;;;;;;4934911;29;20030;-69
2022/01/03 12:04:35;;;;;;;5.13;2.60;;;-1.10;99.90;;;;;;4934890;29;20063;-69
2022/01/03 12:07:13;;;;;;;7.35;3.28;;;-1.20;99.90;;;;;;4934450;29;20395;-69
2022/01/03 12:09:43;;;;;;;6.72;2.83;;;-1.20;99.90;;;;;;4934833;29;20036;-69
2022/01/03 12:12:09;;;;;;;3.90;2.75;;;-1.30;99.90;;;;;;4935179;29;20031;-69
2022/01/03 12:14:46;;;;;;;5.82;2.63;;;-1.30;99.90;;;;;;4934604;29;20062;-69
2022/01/03 12:17:14;;;;;;;4.25;2.55;;;-1.30;99.90;;;;;;4934663;29;20090;-68
2022/01/03 12:19:47;;;;;;;3.35;2.00;;;-1.40;99.90;;;;;;4934828;29;20487;-69
2022/01/03 12:22:17;;;;;;;4.15;2.80;;;-1.40;99.90;;;;;;4935018;29;20074;-69
2022/01/03 12:25:02;;;;;;;4.78;2.35;;;-1.40;99.90;;;;;;4934843;29;20130;-69
2022/01/03 12:27:35;;;;;;;3.75;2.53;;;-1.40;99.90;;;;;;4934830;29;20038;-69
2022/01/03 12:30:01;;;;;;;6.82;2.75;;;-1.50;99.90;;;;;;4915899;29;20024;-69
2022/01/03 12:32:32;;;;;;;5.25;2.53;;;-1.50;99.90;;;;;;4916081;29;20515;-69
2022/01/03 12:35:10;;;;;;;;;;;-1.50;99.90;;;;;;4916459;29;20139;-68
2022/01/03 12:37:54;;;;;;;5.88;2.47;;;-1.50;99.90;;;;;;4915964;29;19907;-69
2022/01/03 12:40:30;;;;;;;6.22;2.88;;;-1.60;99.90;;;;;;4915432;29;20050;-68
2022/01/03 12:42:59;;;;;;;3.47;2.80;;;-1.60;99.90;;;;;;4915770;29;20496;-69
2022/01/03 12:45:30;;;;;;;4.57;2.70;;;-1.60;99.90;;;;;;4915457;29;20024;-68
2022/01/03 12:48:11;;;;;;;4.22;2.42;;;-1.60;99.90;;;;;;4915907;29;20040;-68
2022/01/03 12:50:40;;;;;;;4.32;2.75;;;-1.60;99.90;;;;;;4915689;29;20064;-68
2022/01/03 12:53:08;;;;;;;4.70;2.47;;;-1.60;99.90;;;;;;4915627;29;20039;-68
2022/01/03 12:55:41;;;;;;;2.65;2.25;;;-1.60;99.90;;;;;;4914622;29;20384;-68
2022/01/03 12:58:18;;;;;;;5.72;2.55;;;-1.60;99.90;;;;;;4919238;29;20107;-68
2022/01/03 13:00:53;;;;;;;4.38;2.83;;;-1.60;99.90;;;;;;4919351;29;20080;-68
2022/01/03 13:03:19;;;;;;;6.65;3.10;;;-1.60;99.90;;;;;;4919125;29;20036;-68
2022/01/03 13:06:05;;;;;;;5.05;2.50;;;-1.60;99.90;;;;;;4919212;29;20027;-68
2022/01/03 13:08:49;;;;;;;5.88;2.53;;;-1.60;99.90;;;;;;4919007;29;20595;-68
2022/01/03 13:11:21;;;;;;;4.20;2.38;;;-1.60;99.90;;;;;;4918844;29;20114;-68
2022/01/03 13:13:54;;;;;;;5.05;2.83;;;-1.60;99.90;;;;;;4919317;29;20024;-68
2022/01/03 13:16:32;;;;;;;3.75;2.35;;;-1.60;99.90;;;;;;4918797;29;20028;-68
2022/01/03 13:19:29;;;;;;;4.32;2.58;;;-1.70;99.90;;;;;;4919005;29;20029;-69
2022/01/03 13:21:58;;;;;;;5.38;2.47;;;-1.70;99.90;;;;;;4921329;29;20052;-71
2022/01/03 13:24:35;;;;;;;3.72;2.15;;;-1.60;99.90;;;;;;4918990;29;20032;-68
2022/01/03 13:27:18;;;;;;;5.63;2.47;;;0.50;99.90;;;;;;4919019;29;20035;-68
2022/01/03 13:29:57;;;;;;;2.97;2.35;;;0.50;99.90;;;;;;4919018;29;20025;-68
2022/01/03 13:32:29;;;;;;;6.10;2.33;;;-0.20;99.90;;;;;;4919047;29;20110;-68
2022/01/03 13:34:57;;;;;;;4.65;2.72;;;-0.70;99.90;;;;;;4918692;29;20024;-68
2022/01/03 13:37:24;;;;;;;3.63;2.20;;;-0.90;99.90;;;;;;4918445;29;20024;-68
2022/01/03 13:39:53;;;;;;;3.50;2.60;;;-1.00;99.90;;;;;;4918204;29;20248;-69
2022/01/03 13:42:30;;;;;;;4.85;2.40;;;-1.20;99.90;;;;;;4918446;29;20040;-68
2022/01/03 13:50:18;;;;;;;4.45;2.85;;;-1.40;99.90;;;;;;4918351;29;20031;-68
2022/01/03 13:52:47;;;;;;;5.95;3.03;;;-1.50;99.90;;;;;;4918723;29;20048;-68
2022/01/03 13:55:21;;;;;;;6.65;3.00;;;-1.20;99.90;;;;;;4918458;29;20472;-68
2022/01/03 13:58:04;;;;;;;5.90;2.53;;;-1.10;99.90;;;;;;4935734;29;20028;-68
2022/01/03 14:00:32;;;;;;;3.15;2.35;;;-1.30;99.90;;;;;;4937184;29;20031;-68
2022/01/03 14:02:58;;;;;;;5.35;2.45;;;-1.40;99.90;;;;;;4937116;29;20047;-68
2022/01/03 14:05:24;;;;;;;6.22;2.78;;;-1.50;99.90;;;;;;4936846;29;20016;-68
2022/01/03 14:07:51;;;;;;;5.15;2.90;;;-1.50;99.90;;;;;;4936809;29;20028;-68
2022/01/03 14:10:17;;;;;;;6.40;3.22;;;-1.60;99.90;;;;;;4935788;29;20032;-68
2022/01/03 14:12:51;;;;;;;6.55;2.80;;;-1.60;99.90;;;;;;4937377;29;20039;-68
2022/01/03 14:15:16;;;;;;;5.22;3.08;;;-1.60;99.90;;;;;;4936435;29;20034;-68
2022/01/03 14:17:50;;;;;;;5.63;2.63;;;-1.70;99.90;;;;;;4936542;29;20024;-68
2022/01/03 14:20:19;;;;;;;5.72;2.78;;;-1.70;99.90;;;;;;4933951;29;20062;-68
2022/01/03 14:22:45;;;;;;;4.85;2.65;;;-1.70;99.90;;;;;;4936563;29;20048;-68
2022/01/03 14:25:13;;;;;;;4.63;2.80;;;-1.70;99.90;;;;;;4936149;29;20391;-68
2022/01/03 14:27:47;;;;;;;5.40;2.38;;;-1.70;99.90;;;;;;4936551;29;20036;-68
2022/01/03 14:30:16;;;;;;;8.05;2.90;;;-1.70;99.90;;;;;;4948204;29;20036;-70